Scanlon, Minnesota
Current Conditions -  °F | °C
As of 5:56 AM on Wednesday 28 Jan 2015 (Local Time) from KCOQ Reporting Station
Overcast Overcast  
Wind Chill: 18°   Ceiling: 700
Heat Index: 25°   Visibility: 10mi
Dew Point: 21°   Wind: 6mph
Humidity: 86%   Direction: 140°SE
Pressure: 30"   Gusts: NA
Location:  46.7232°N, 92.5588°W
Report Text: KCOQ 281156Z AUTO 14005KT 10SM OVC007 M04/M06 A3000 RMK AO2
Loading
Personal Weather Stations






























Interactive Weather Map New forecast layout! Learn more

10-Day Weather Forecast

Advertisements
Track Severe Weather on mobile